createdAt,value
2023-04-02T00:00:15.005Z,7.90
2023-04-02T00:03:03.847Z,6.97
2023-04-02T00:05:52.608Z,7.77
2023-04-02T00:08:27.047Z,8.00
2023-04-02T00:10:57.877Z,7.87
2023-04-02T00:13:37.811Z,7.37
2023-04-02T00:16:08.446Z,7.17
2023-04-02T00:18:43.717Z,7.37
2023-04-02T00:21:15.401Z,7.60
2023-04-02T00:23:44.945Z,7.20
2023-04-02T00:26:31.853Z,7.47
2023-04-02T00:29:00.550Z,8.00
2023-04-02T00:31:29.049Z,7.83
2023-04-02T00:33:59.368Z,7.67
2023-04-02T00:36:31.255Z,7.10
2023-04-02T00:39:01.228Z,7.63
2023-04-02T00:41:36.215Z,8.13
2023-04-02T00:44:05.919Z,7.60
2023-04-02T00:46:47.062Z,7.60
2023-04-02T00:49:26.189Z,7.70
2023-04-02T00:51:57.850Z,7.67
2023-04-02T00:54:30.770Z,7.90
2023-04-02T00:56:59.552Z,7.67
2023-04-02T00:59:30.790Z,7.90
2023-04-02T01:02:02.785Z,7.53
2023-04-02T01:04:35.240Z,7.47
2023-04-02T01:07:07.397Z,7.73
2023-04-02T01:09:52.331Z,7.13
2023-04-02T01:12:45.983Z,6.97
2023-04-02T01:15:19.319Z,7.63
2023-04-02T01:18:03.725Z,6.77
2023-04-02T01:21:04.364Z,6.33
2023-04-02T01:23:40.201Z,7.20
2023-04-02T01:26:16.916Z,7.67
2023-04-02T01:29:06.845Z,6.63
2023-04-02T01:31:36.388Z,6.33
2023-04-02T01:34:08.697Z,6.63
2023-04-02T01:36:44.854Z,6.10
2023-04-02T01:39:25.705Z,6.67
2023-04-02T01:42:03.232Z,6.97
2023-04-02T01:44:39.044Z,6.53
2023-04-02T01:47:12.514Z,6.40
2023-04-02T01:49:42.658Z,6.50
2023-04-02T01:52:17.325Z,6.77
2023-04-02T01:54:47.250Z,6.23
2023-04-02T01:57:15.654Z,6.97
2023-04-02T01:59:45.951Z,7.00
2023-04-02T02:02:15.264Z,6.30
2023-04-02T02:04:43.542Z,6.23
2023-04-02T02:07:17.206Z,6.30
2023-04-02T02:09:46.013Z,6.57
2023-04-02T02:12:16.403Z,7.03
2023-04-02T02:14:49.966Z,6.60
2023-04-02T02:17:33.766Z,6.73
2023-04-02T02:20:10.961Z,7.37
2023-04-02T02:22:41.250Z,7.23
2023-04-02T02:25:15.616Z,6.80
2023-04-02T02:27:59.510Z,7.43
2023-04-02T02:30:32.560Z,7.00
2023-04-02T02:33:06.668Z,7.30
2023-04-02T02:35:39.847Z,7.67
2023-04-02T02:38:29.978Z,7.20
2023-04-02T02:41:03.795Z,7.93
2023-04-02T02:43:34.095Z,8.87
2023-04-02T02:46:07.200Z,9.17
2023-04-02T02:48:40.663Z,9.63
2023-04-02T02:51:16.500Z,9.43
2023-04-02T02:53:51.749Z,10.20
2023-04-02T02:56:22.792Z,10.10
2023-04-02T02:58:53.159Z,10.87
2023-04-02T03:01:22.868Z,9.43
2023-04-02T03:03:55.496Z,10.73
2023-04-02T03:06:24.048Z,11.23
2023-04-02T03:09:00.837Z,10.33
2023-04-02T03:11:36.191Z,10.13
2023-04-02T03:14:11.648Z,11.37
2023-04-02T03:16:46.315Z,10.63
2023-04-02T03:19:28.601Z,11.80
2023-04-02T03:22:03.186Z,11.07
2023-04-02T03:24:37.142Z,10.60
2023-04-02T03:27:12.484Z,11.90
2023-04-02T03:29:44.796Z,11.70
2023-04-02T03:32:18.503Z,11.60
2023-04-02T03:34:50.873Z,12.50
2023-04-02T03:37:23.595Z,13.13
2023-04-02T03:39:55.991Z,13.43
2023-04-02T03:42:26.346Z,13.90
2023-04-02T03:44:58.536Z,13.20
2023-04-02T03:47:34.815Z,15.07
2023-04-02T03:50:07.502Z,15.47
2023-04-02T03:52:37.977Z,15.13
2023-04-02T03:55:15.951Z,16.23
2023-04-02T03:57:53.755Z,14.17
2023-04-02T04:00:28.293Z,14.77
2023-04-02T04:03:01.142Z,16.03
2023-04-02T04:05:33.629Z,14.57
2023-04-02T04:08:04.639Z,15.87
2023-04-02T04:10:33.822Z,15.07
2023-04-02T04:13:06.535Z,16.03
2023-04-02T04:15:38.308Z,16.03
2023-04-02T04:18:19.247Z,15.83
2023-04-02T04:20:56.529Z,15.90
2023-04-02T04:23:30.255Z,15.13
2023-04-02T04:26:01.937Z,15.67
2023-04-02T04:28:38.285Z,14.80
2023-04-02T04:31:18.104Z,16.10
2023-04-02T04:33:54.856Z,16.00
2023-04-02T04:36:28.746Z,15.73
2023-04-02T04:39:01.308Z,14.77
2023-04-02T04:41:33.172Z,15.13
2023-04-02T04:44:07.265Z,16.13
2023-04-02T04:46:39.975Z,16.50
2023-04-02T04:49:15.406Z,14.60
2023-04-02T04:51:48.127Z,15.27
2023-04-02T04:54:17.268Z,15.30
2023-04-02T04:56:48.517Z,15.20
2023-04-02T04:59:22.238Z,14.77
2023-04-02T05:01:57.799Z,14.20
2023-04-02T05:04:33.565Z,15.10
2023-04-02T05:07:07.348Z,13.63
2023-04-02T05:09:39.273Z,13.43
2023-04-02T05:12:17.712Z,12.37
2023-04-02T05:14:52.472Z,12.47
2023-04-02T05:17:26.914Z,12.43
2023-04-02T05:20:01.071Z,11.57
2023-04-02T05:22:39.428Z,12.37
2023-04-02T05:25:18.364Z,13.33
2023-04-02T05:27:52.742Z,11.87
2023-04-02T05:30:46.536Z,12.20
2023-04-02T05:33:25.039Z,11.53
2023-04-02T05:36:00.647Z,11.90
2023-04-02T05:38:31.284Z,12.07
2023-04-02T05:41:06.097Z,11.57
2023-04-02T05:43:36.784Z,11.87
2023-04-02T05:46:09.797Z,11.23
2023-04-02T05:48:41.120Z,10.10
2023-04-02T05:51:18.285Z,9.90
2023-04-02T05:53:50.573Z,10.30
2023-04-02T05:56:23.011Z,9.27
2023-04-02T05:58:56.490Z,9.77
2023-04-02T06:01:34.480Z,9.87
2023-04-02T06:04:09.247Z,9.20
2023-04-02T06:06:52.893Z,9.93
2023-04-02T06:09:28.735Z,8.83
2023-04-02T06:12:04.237Z,9.43
2023-04-02T06:14:32.472Z,9.53
2023-04-02T06:17:00.932Z,9.47
2023-04-02T06:19:33.968Z,10.03
2023-04-02T06:22:15.650Z,9.80
2023-04-02T06:24:46.449Z,9.10
2023-04-02T06:27:19.928Z,10.03
2023-04-02T06:29:52.879Z,9.40
2023-04-02T06:32:24.336Z,9.43
2023-04-02T06:34:52.715Z,9.13
2023-04-02T06:37:28.750Z,8.40
2023-04-02T06:39:57.597Z,9.67
2023-04-02T06:42:28.797Z,8.27
2023-04-02T06:44:57.128Z,9.10
2023-04-02T06:47:31.781Z,7.33
2023-04-02T06:50:07.126Z,7.77
2023-04-02T06:52:41.254Z,7.93
2023-04-02T06:55:29.373Z,7.10
2023-04-02T06:57:57.572Z,7.40
2023-04-02T07:00:31.635Z,7.07
2023-04-02T07:03:02.899Z,6.93
2023-04-02T07:05:31.643Z,6.93
2023-04-02T07:08:01.171Z,7.30
2023-04-02T07:10:29.348Z,6.80
2023-04-02T07:12:57.527Z,7.27
2023-04-02T07:15:25.944Z,6.53
2023-04-02T07:17:57.196Z,7.17
2023-04-02T07:20:29.018Z,7.30
2023-04-02T07:22:57.295Z,7.20
2023-04-02T07:25:27.947Z,6.60
2023-04-02T07:27:56.873Z,7.30
2023-04-02T07:30:25.043Z,7.73
2023-04-02T07:32:53.269Z,7.03
2023-04-02T07:35:21.494Z,7.73
2023-04-02T07:37:49.743Z,8.47
2023-04-02T07:40:20.746Z,8.73
2023-04-02T07:42:50.718Z,8.67
2023-04-02T07:45:18.924Z,8.43
2023-04-02T07:47:47.105Z,8.87
2023-04-02T07:50:15.515Z,9.27
2023-04-02T07:52:44.392Z,9.47
2023-04-02T07:55:13.838Z,8.40
2023-04-02T07:57:46.391Z,8.20
2023-04-02T08:00:17.860Z,7.80
2023-04-02T08:02:46.582Z,8.23
2023-04-02T08:05:15.542Z,7.73
2023-04-02T08:07:44.064Z,7.57
2023-04-02T08:10:13.638Z,7.90
2023-04-02T08:12:41.832Z,7.30
2023-04-02T08:15:16.371Z,8.13
2023-04-02T08:17:45.075Z,7.63
2023-04-02T08:20:18.121Z,7.27
2023-04-02T08:22:46.738Z,7.60
2023-04-02T08:25:15.125Z,8.03
2023-04-02T08:27:43.725Z,7.60
2023-04-02T08:30:14.057Z,8.27
2023-04-02T08:32:43.867Z,7.90
2023-04-02T08:35:16.370Z,7.60
2023-04-02T08:37:44.952Z,7.43
2023-04-02T08:40:23.242Z,7.40
2023-04-02T08:43:06.723Z,7.77
2023-04-02T08:45:47.321Z,7.40
2023-04-02T08:48:17.419Z,7.83
2023-04-02T08:50:46.490Z,7.33
2023-04-02T08:53:19.083Z,7.90
2023-04-02T08:55:55.946Z,7.27
2023-04-02T08:58:35.488Z,6.33
2023-04-02T09:01:07.188Z,7.53
2023-04-02T09:03:42.856Z,7.00
2023-04-02T09:06:16.752Z,6.90
2023-04-02T09:08:46.340Z,7.03
2023-04-02T09:11:21.618Z,7.30
2023-04-02T09:13:55.676Z,7.10
2023-04-02T09:16:35.635Z,6.40
2023-04-02T09:19:18.528Z,6.37
2023-04-02T09:21:53.733Z,6.27
2023-04-02T09:24:21.923Z,6.87
2023-04-02T09:26:50.166Z,6.47
2023-04-02T09:29:37.711Z,6.53
2023-04-02T09:32:18.930Z,6.40
2023-04-02T09:34:48.644Z,5.97
2023-04-02T09:37:19.727Z,6.17
2023-04-02T09:39:48.024Z,4.97
2023-04-02T09:42:33.966Z,5.27
2023-04-02T09:45:15.564Z,5.97
2023-04-02T09:47:44.003Z,4.93
2023-04-02T09:50:26.697Z,4.37
2023-04-02T09:52:54.911Z,3.97
2023-04-02T09:55:27.268Z,3.73
2023-04-02T09:58:13.819Z,4.10
2023-04-02T10:00:51.240Z,3.80
2023-04-02T10:03:26.659Z,4.20
2023-04-02T10:06:10.718Z,4.37
2023-04-02T10:08:41.496Z,4.10
2023-04-02T10:11:13.771Z,4.97
2023-04-02T10:13:50.577Z,5.50
2023-04-02T10:16:24.894Z,4.60
2023-04-02T10:18:58.269Z,5.43
2023-04-02T10:21:30.371Z,5.13
2023-04-02T10:23:59.601Z,5.50
2023-04-02T10:26:47.710Z,6.17
2023-04-02T10:29:32.581Z,5.73
2023-04-02T10:32:08.796Z,6.27
2023-04-02T10:34:44.292Z,6.10
2023-04-02T10:37:44.062Z,7.17
2023-04-02T10:40:17.724Z,6.50
2023-04-02T10:42:55.141Z,6.47
2023-04-02T10:45:36.718Z,6.27
2023-04-02T10:48:13.147Z,7.00
2023-04-02T10:50:50.067Z,7.60
2023-04-02T10:53:21.521Z,6.97
2023-04-02T10:55:53.665Z,6.77
2023-04-02T10:58:25.710Z,7.53
2023-04-02T11:00:58.031Z,7.47
2023-04-02T11:03:34.567Z,8.03
2023-04-02T11:06:07.179Z,7.93
2023-04-02T11:08:43.290Z,8.23
2023-04-02T11:11:15.478Z,8.17
2023-04-02T11:13:51.906Z,7.77
2023-04-02T11:16:20.378Z,7.43
2023-04-02T11:19:10.626Z,8.10
2023-04-02T11:21:54.966Z,8.27
2023-04-02T11:24:46.116Z,7.40
2023-04-02T11:27:21.970Z,8.13
2023-04-02T11:29:53.410Z,8.47
2023-04-02T11:32:32.474Z,8.60
2023-04-02T11:35:30.306Z,8.97
2023-04-02T11:38:00.422Z,8.10
2023-04-02T11:40:50.000Z,8.53
2023-04-02T11:43:50.796Z,7.87
2023-04-02T11:46:41.689Z,7.90
2023-04-02T11:49:35.888Z,9.47
2023-04-02T11:52:11.946Z,9.80
2023-04-02T11:54:41.728Z,9.10
2023-04-02T11:57:28.364Z,9.63
2023-04-02T12:00:14.371Z,9.80
2023-04-02T12:02:59.503Z,8.63
2023-04-02T12:05:32.037Z,9.60
2023-04-02T12:08:18.712Z,9.77
2023-04-02T12:10:57.702Z,9.50
2023-04-02T12:13:53.903Z,8.90
2023-04-02T12:16:24.318Z,9.60
2023-04-02T12:18:55.035Z,8.17
2023-04-02T12:21:25.788Z,9.00
2023-04-02T12:23:56.482Z,8.83
2023-04-02T12:26:38.891Z,9.10
2023-04-02T12:29:25.517Z,9.27
2023-04-02T12:31:54.784Z,8.37
2023-04-02T12:34:24.592Z,7.80
2023-04-02T12:36:54.534Z,7.77
2023-04-02T12:39:24.676Z,9.20
2023-04-02T12:41:55.205Z,9.17
2023-04-02T12:44:27.411Z,9.00
2023-04-02T12:46:56.176Z,8.83
2023-04-02T12:49:34.863Z,9.00
2023-04-02T12:52:05.462Z,8.60
2023-04-02T12:54:37.832Z,7.60
2023-04-02T12:57:23.550Z,7.23
2023-04-02T12:59:54.164Z,7.93
2023-04-02T13:02:24.196Z,8.30
2023-04-02T13:04:54.318Z,8.30
2023-04-02T13:07:25.266Z,7.43
2023-04-02T13:09:54.906Z,7.20
2023-04-02T13:12:28.737Z,7.03
2023-04-02T13:15:00.420Z,8.33
2023-04-02T13:17:39.427Z,7.23
2023-04-02T13:20:33.939Z,8.00
2023-04-02T13:23:04.781Z,7.93
2023-04-02T13:25:36.152Z,6.57
2023-04-02T13:28:04.372Z,6.23
2023-04-02T13:30:34.050Z,6.67
2023-04-02T13:33:02.353Z,6.60
2023-04-02T13:35:31.033Z,6.50
2023-04-02T13:37:59.281Z,6.40
2023-04-02T13:40:27.540Z,7.00
2023-04-02T13:42:55.747Z,6.07
2023-04-02T13:45:27.351Z,6.30
2023-04-02T13:48:01.004Z,6.37
2023-04-02T13:50:30.813Z,6.63
2023-04-02T13:53:01.477Z,5.80
2023-04-02T13:55:33.202Z,5.37
2023-04-02T13:58:01.390Z,7.53
2023-04-02T14:00:29.694Z,6.57
2023-04-02T14:03:02.785Z,6.33
2023-04-02T14:05:38.785Z,6.53
2023-04-02T14:08:12.508Z,6.97
2023-04-02T14:11:05.764Z,5.43
2023-04-02T14:13:53.995Z,7.13
2023-04-02T14:16:36.997Z,7.33
2023-04-02T14:19:18.034Z,6.27
2023-04-02T14:21:57.540Z,6.57
2023-04-02T14:24:33.552Z,6.80
2023-04-02T14:27:11.182Z,6.57
2023-04-02T14:29:46.176Z,6.97
2023-04-02T14:32:20.523Z,6.73
2023-04-02T14:34:57.953Z,7.50
2023-04-02T14:37:34.818Z,6.73
2023-04-02T14:40:15.107Z,6.57
2023-04-02T14:42:48.838Z,6.00
2023-04-02T14:45:29.376Z,6.67
2023-04-02T14:48:02.153Z,7.17
2023-04-02T14:53:13.156Z,6.73
2023-04-02T14:55:46.558Z,6.77
2023-04-02T14:58:22.609Z,7.17
2023-04-02T15:00:57.984Z,5.70
2023-04-02T15:03:29.934Z,7.33
2023-04-02T15:06:01.351Z,6.87
2023-04-02T15:08:31.987Z,5.97
2023-04-02T15:11:09.003Z,6.37
2023-04-02T15:13:39.614Z,5.70
2023-04-02T15:16:13.345Z,5.50
2023-04-02T15:18:41.639Z,5.97
2023-04-02T15:21:29.388Z,5.57
2023-04-02T15:24:03.673Z,6.00
2023-04-02T15:26:40.942Z,5.73
2023-04-02T15:29:28.950Z,6.10
2023-04-02T15:32:05.368Z,6.70
2023-04-02T15:34:38.304Z,5.80
2023-04-02T15:37:13.906Z,6.37
2023-04-02T15:40:06.983Z,6.50
2023-04-02T15:42:40.600Z,5.87
2023-04-02T15:45:27.686Z,6.60
2023-04-02T15:48:27.539Z,7.17
2023-04-02T15:51:03.706Z,6.20
2023-04-02T15:53:40.369Z,6.83
2023-04-02T15:56:22.575Z,7.23
2023-04-02T15:59:03.340Z,6.87
2023-04-02T16:01:41.906Z,6.47
2023-04-02T16:04:27.129Z,6.43
2023-04-02T16:07:20.355Z,6.67
2023-04-02T16:09:58.818Z,6.70
2023-04-02T16:12:29.240Z,6.30
2023-04-02T16:15:05.876Z,6.57
2023-04-02T16:17:40.712Z,6.67
2023-04-02T16:20:19.949Z,6.17
2023-04-02T16:23:00.063Z,6.40
2023-04-02T16:25:34.700Z,6.97
2023-04-02T16:28:14.079Z,6.20
2023-04-02T16:30:51.284Z,7.07
2023-04-02T16:33:31.165Z,6.30
2023-04-02T16:36:09.147Z,6.13
2023-04-02T16:38:48.804Z,6.30
2023-04-02T16:41:29.018Z,5.70
2023-04-02T16:44:07.341Z,5.63
2023-04-02T16:46:42.581Z,5.60
2023-04-02T16:49:22.987Z,6.07
2023-04-02T16:52:03.826Z,5.63
2023-04-02T16:54:41.526Z,5.07
2023-04-02T16:57:21.387Z,5.63
2023-04-02T16:59:58.366Z,6.10
2023-04-02T17:02:39.848Z,6.33
2023-04-02T17:05:18.843Z,6.47
2023-04-02T17:07:52.734Z,6.90
2023-04-02T17:10:27.514Z,5.80
2023-04-02T17:13:13.044Z,6.37
2023-04-02T17:15:43.706Z,6.43
2023-04-02T17:18:17.999Z,6.57
2023-04-02T17:20:46.833Z,6.00
2023-04-02T17:23:16.228Z,5.77
2023-04-02T17:25:50.253Z,6.13
2023-04-02T17:28:25.538Z,5.37
2023-04-02T17:30:56.712Z,5.93
2023-04-02T17:33:26.990Z,6.17
2023-04-02T17:36:10.201Z,6.33
2023-04-02T17:38:48.894Z,6.17
2023-04-02T17:41:22.605Z,6.93
2023-04-02T17:44:00.780Z,8.00
2023-04-02T17:46:36.647Z,8.97
2023-04-02T17:49:13.105Z,7.63
2023-04-02T17:51:47.788Z,7.03
2023-04-02T17:54:30.915Z,7.47
2023-04-02T17:57:20.685Z,7.73
2023-04-02T18:00:01.724Z,7.80
2023-04-02T18:02:42.646Z,8.30
2023-04-02T18:05:21.525Z,8.50
2023-04-02T18:07:58.700Z,8.23
2023-04-02T18:10:34.818Z,7.73
2023-04-02T18:13:08.566Z,7.50
2023-04-02T18:15:55.863Z,6.97
2023-04-02T18:18:39.288Z,6.60
2023-04-02T18:21:17.329Z,5.80
2023-04-02T18:23:59.598Z,5.77
2023-04-02T18:26:38.144Z,6.30
2023-04-02T18:29:21.266Z,5.27
2023-04-02T18:31:58.209Z,5.77
2023-04-02T18:34:57.949Z,6.20
2023-04-02T18:37:34.181Z,5.40
2023-04-02T18:40:26.154Z,5.50
2023-04-02T18:43:03.553Z,5.50
2023-04-02T18:45:44.355Z,5.30
2023-04-02T18:48:29.565Z,5.17
2023-04-02T18:50:59.765Z,4.97
2023-04-02T18:53:30.289Z,4.30
2023-04-02T18:56:03.972Z,4.50
2023-04-02T18:58:41.759Z,4.10
2023-04-02T19:01:14.610Z,3.83
2023-04-02T19:03:50.206Z,5.23
2023-04-02T19:06:22.939Z,4.37
2023-04-02T19:08:57.674Z,3.93
2023-04-02T19:11:31.011Z,4.50
2023-04-02T19:14:01.762Z,3.77
2023-04-02T19:17:03.634Z,3.50
2023-04-02T19:19:38.251Z,4.07
2023-04-02T19:22:17.874Z,3.47
2023-04-02T19:25:17.675Z,3.80
2023-04-02T19:27:58.086Z,3.20
2023-04-02T19:31:07.521Z,3.60
2023-04-02T19:33:43.460Z,3.43
2023-04-02T19:36:35.838Z,3.00
2023-04-02T19:39:22.321Z,3.40
2023-04-02T19:41:54.767Z,2.90
2023-04-02T19:44:23.365Z,3.20
2023-04-02T19:46:53.310Z,2.90
2023-04-02T19:49:28.380Z,2.87
2023-04-02T19:51:58.253Z,2.60
2023-04-02T19:54:26.486Z,2.90
2023-04-02T19:56:54.760Z,3.00
2023-04-02T19:59:22.956Z,2.83
2023-04-02T20:01:51.105Z,2.87
2023-04-02T20:04:19.354Z,2.50
2023-04-02T20:06:47.552Z,2.80
2023-04-02T20:09:17.114Z,2.63
2023-04-02T20:11:45.535Z,2.40
2023-04-02T20:14:13.725Z,2.03
2023-04-02T20:16:43.250Z,2.17
2023-04-02T20:19:12.755Z,2.27
2023-04-02T20:21:40.988Z,2.10
2023-04-02T20:24:09.574Z,2.27
2023-04-02T20:26:39.131Z,2.30
2023-04-02T20:29:07.394Z,2.53
2023-04-02T20:31:37.209Z,2.30
2023-04-02T20:34:06.731Z,2.60
2023-04-02T20:36:35.245Z,2.43
2023-04-02T20:39:03.856Z,2.67
2023-04-02T20:41:32.034Z,2.23
2023-04-02T20:44:02.093Z,1.93
2023-04-02T20:46:30.414Z,1.90
2023-04-02T20:48:58.703Z,1.90
2023-04-02T20:51:26.887Z,2.00
2023-04-02T20:53:55.373Z,2.20
2023-04-02T20:56:24.398Z,1.93
2023-04-02T20:58:52.605Z,2.00
2023-04-02T21:01:24.580Z,2.27
2023-04-02T21:03:56.944Z,1.80
2023-04-02T21:06:26.894Z,1.90
2023-04-02T21:08:55.138Z,1.97
2023-04-02T21:11:24.150Z,1.80
2023-04-02T21:13:52.797Z,1.67
2023-04-02T21:16:24.418Z,1.83
2023-04-02T21:18:53.862Z,1.90
2023-04-02T21:21:22.611Z,1.80
2023-04-02T21:23:55.960Z,2.00
2023-04-02T21:26:24.494Z,1.90
2023-04-02T21:28:52.702Z,1.67
2023-04-02T21:31:23.956Z,1.60
2023-04-02T21:33:54.292Z,1.80
2023-04-02T21:36:24.755Z,1.70
2023-04-02T21:38:54.633Z,1.67
2023-04-02T21:41:24.149Z,1.90
2023-04-02T21:43:52.465Z,1.67
2023-04-02T21:46:24.930Z,1.90
2023-04-02T21:48:54.695Z,2.13
2023-04-02T21:51:24.369Z,1.40
2023-04-02T21:53:54.171Z,1.80
2023-04-02T21:56:24.110Z,1.83
2023-04-02T21:58:53.005Z,1.77
2023-04-02T22:01:27.593Z,1.80
2023-04-02T22:03:56.348Z,1.70
2023-04-02T22:06:26.529Z,1.80
2023-04-02T22:08:56.880Z,1.77
2023-04-02T22:11:27.521Z,2.10
2023-04-02T22:13:56.001Z,1.97
2023-04-02T22:16:28.811Z,1.90
2023-04-02T22:19:00.889Z,1.60
2023-04-02T22:21:29.873Z,1.50
2023-04-02T22:23:59.864Z,1.77
2023-04-02T22:26:28.248Z,1.60
2023-04-02T22:28:56.440Z,2.10
2023-04-02T22:31:27.804Z,1.60
2023-04-02T22:33:56.888Z,2.00
2023-04-02T22:36:26.538Z,1.60
2023-04-02T22:38:55.080Z,1.53
2023-04-02T22:41:27.230Z,1.60
2023-04-02T22:43:56.881Z,1.60
2023-04-02T22:46:27.591Z,1.47
2023-04-02T22:48:56.282Z,1.50
2023-04-02T22:51:26.099Z,1.70
2023-04-02T22:53:56.064Z,1.67
2023-04-02T22:56:27.585Z,1.83
2023-04-02T22:58:55.844Z,1.57
2023-04-02T23:01:27.674Z,1.70
2023-04-02T23:03:56.949Z,2.13
2023-04-02T23:06:26.386Z,1.87
2023-04-02T23:08:54.615Z,1.80
2023-04-02T23:11:24.640Z,1.77
2023-04-02T23:13:54.591Z,1.83
2023-04-02T23:16:23.354Z,1.83
2023-04-02T23:18:53.410Z,1.60
2023-04-02T23:21:22.136Z,1.50
2023-04-02T23:23:51.122Z,1.83
2023-04-02T23:26:22.365Z,1.87
2023-04-02T23:28:51.790Z,1.60
2023-04-02T23:31:22.038Z,1.53
2023-04-02T23:33:50.686Z,1.70
2023-04-02T23:36:23.496Z,1.50
2023-04-02T23:38:55.273Z,1.60
2023-04-02T23:41:24.857Z,2.00
2023-04-02T23:43:53.227Z,1.37
2023-04-02T23:46:22.345Z,1.73
2023-04-02T23:48:51.705Z,1.20
2023-04-02T23:51:21.325Z,1.80
2023-04-02T23:53:50.701Z,1.30
2023-04-02T23:56:19.528Z,1.47
2023-04-02T23:58:47.735Z,1.50
